Time;durP1;ratioP1;P1;durP2;ratioP2;P2;SDS_P1;SDS_P2;PMS_P1;PMS_P2;Temp;Humidity;BMP_temperature;BMP_pressure;BME280_temperature;BME280_humidity;BME280_pressure;Samples;Min_cycle;Max_cycle;Signal;HPM_P1;HPM_P2
2021/05/06 00:33:53;;;;;;;1.17;1.08;;;6.40;71.10;;;;;;5000694;28;20030;-77
2021/05/06 00:36:19;;;;;;;1.05;0.98;;;6.40;71.50;;;;;;4998959;28;20030;-77
2021/05/06 00:38:54;;;;;;;2.50;1.08;;;6.50;71.40;;;;;;4985131;28;21834;-78
2021/05/06 00:55:24;;;;;;;0.93;0.90;;;6.50;73.40;;;;;;4999273;28;20052;-77
2021/05/06 00:57:38;;;;;;;1.88;1.13;;;6.50;73.70;;;;;;4985178;28;20465;-77
2021/05/06 01:08:15;;;;;;;2.80;1.23;;;6.60;74.10;;;;;;4996960;28;20026;-78
2021/05/06 01:13:20;;;;;;;7.00;4.22;;;6.60;74.60;;;;;;4990920;28;20089;-78
2021/05/06 01:15:46;;;;;;;2.92;2.22;;;6.60;75.20;;;;;;4999391;28;20088;-78
2021/05/06 01:18:12;;;;;;;2.55;1.70;;;6.60;74.90;;;;;;4990150;28;20056;-78
2021/05/06 01:20:55;;;;;;;1.95;1.17;;;6.60;74.90;;;;;;4989390;28;20030;-77
2021/05/06 01:23:25;;;;;;;1.35;1.10;;;6.60;74.20;;;;;;4994255;28;20521;-77
2021/05/06 01:25:58;;;;;;;2.67;1.10;;;6.50;73.80;;;;;;4983825;28;20037;-78
2021/05/06 01:28:26;;;;;;;2.15;1.02;;;6.50;73.70;;;;;;4995229;28;20488;-78
2021/05/06 01:31:14;;;;;;;1.75;0.95;;;6.50;73.50;;;;;;4990263;28;20069;-78
2021/05/06 01:36:18;;;;;;;1.38;1.02;;;6.50;73.10;;;;;;4986022;28;20481;-78
2021/05/06 01:44:00;;;;;;;0.93;0.93;;;6.50;73.00;;;;;;4994742;28;20044;-78
2021/05/06 01:59:55;;;;;;;0.90;0.90;;;6.50;75.40;;;;;;4991878;28;20045;-78
2021/05/06 02:02:20;;;;;;;1.55;1.08;;;6.50;75.60;;;;;;4988112;28;20030;-78
2021/05/06 02:04:46;;;;;;;1.77;1.08;;;6.50;76.30;;;;;;4995508;28;20041;-78
2021/05/06 02:07:11;;;;;;;1.58;1.13;;;6.50;75.90;;;;;;4990655;28;20652;-77
2021/05/06 02:09:37;;;;;;;1.58;1.27;;;6.40;75.90;;;;;;4988995;28;20042;-77
2021/05/06 02:12:04;;;;;;;1.17;1.17;;;6.40;74.80;;;;;;4985800;28;20054;-78
2021/05/06 02:14:30;;;;;;;1.27;1.10;;;6.40;74.50;;;;;;4987479;28;20026;-78
2021/05/06 02:16:56;;;;;;;1.02;1.02;;;6.50;74.50;;;;;;4991361;28;20049;-78
2021/05/06 02:19:29;;;;;;;1.70;1.33;;;6.50;74.60;;;;;;4990118;28;20125;-77
2021/05/06 02:21:55;;;;;;;1.95;1.33;;;6.40;74.40;;;;;;4991671;28;20022;-77
2021/05/06 02:24:21;;;;;;;2.60;1.23;;;6.50;74.30;;;;;;4988458;28;20026;-77
2021/05/06 02:26:47;;;;;;;1.83;1.40;;;6.40;73.50;;;;;;4987655;28;20434;-78
2021/05/06 02:29:12;;;;;;;1.42;1.05;;;6.40;73.40;;;;;;4990070;28;20037;-77
2021/05/06 02:31:38;;;;;;;1.10;1.10;;;6.40;73.20;;;;;;4990799;28;20048;-77
2021/05/06 02:34:04;;;;;;;1.63;1.17;;;6.40;73.20;;;;;;4988390;28;20049;-76
2021/05/06 02:36:30;;;;;;;0.90;0.90;;;6.40;73.50;;;;;;4986883;28;20492;-77
2021/05/06 02:38:55;;;;;;;1.80;1.30;;;6.40;73.20;;;;;;4987183;28;20035;-78
2021/05/06 02:41:21;;;;;;;3.83;1.73;;;6.40;73.20;;;;;;4985884;28;20030;-77
2021/05/06 02:43:47;;;;;;;1.30;1.20;;;6.40;73.40;;;;;;4989759;28;20034;-77
2021/05/06 02:46:12;;;;;;;2.05;1.20;;;6.30;75.10;;;;;;4985640;28;20034;-78
2021/05/06 02:48:38;;;;;;;1.35;1.05;;;6.30;75.30;;;;;;4985770;28;20384;-77
2021/05/06 02:51:05;;;;;;;1.42;1.33;;;6.30;75.50;;;;;;4987316;28;20026;-78
2021/05/06 02:53:36;;;;;;;1.23;1.20;;;6.20;75.70;;;;;;4993681;28;20046;-78
2021/05/06 02:56:11;;;;;;;4.95;1.20;;;6.20;75.70;;;;;;4987796;28;20415;-77
2021/05/06 03:04:05;;;;;;;1.10;1.10;;;6.20;76.70;;;;;;4987056;28;20057;-77
2021/05/06 03:06:36;;;;;;;1.45;1.10;;;6.20;77.00;;;;;;4985759;28;20022;-77
2021/05/06 03:09:23;;;;;;;1.42;1.15;;;6.20;76.60;;;;;;4987177;28;20032;-76
2021/05/06 03:23:01;;;;;;;2.10;1.40;;;6.30;76.40;;;;;;4990918;28;20032;-78
2021/05/06 03:25:29;;;;;;;1.65;1.55;;;6.30;76.50;;;;;;4989462;28;20038;-78
2021/05/06 03:28:02;;;;;;;1.85;1.40;;;6.20;76.80;;;;;;4995006;28;20406;-78
2021/05/06 04:18:51;;;;;;;1.67;1.42;;;6.20;77.70;;;;;;4986256;28;20033;-78
2021/05/06 04:21:32;;;;;;;1.80;1.50;;;6.30;77.70;;;;;;4989542;28;20069;-78
2021/05/06 04:37:10;;;;;;;5.57;2.15;;;6.30;78.80;;;;;;4985871;28;20056;-77
2021/05/06 04:39:46;;;;;;;2.75;1.65;;;6.40;78.40;;;;;;4983631;28;20023;-78
2021/05/06 04:42:38;;;;;;;2.92;1.40;;;6.30;78.60;;;;;;4986713;28;20026;-77
2021/05/06 04:55:39;;;;;;;1.95;1.52;;;6.50;78.30;;;;;;4984600;28;20089;-78
2021/05/06 05:03:50;;;;;;;2.25;1.48;;;6.60;77.80;;;;;;4981960;28;20131;-77
2021/05/06 05:06:17;;;;;;;1.73;1.17;;;6.60;78.10;;;;;;4987874;28;20058;-77
2021/05/06 05:08:53;;;;;;;7.82;1.80;;;6.70;77.80;;;;;;4991546;28;20023;-77
2021/05/06 05:11:30;;;;;;;4.22;2.03;;;6.70;76.70;;;;;;4986151;28;20057;-78
2021/05/06 05:24:45;;;;;;;4.55;1.70;;;6.90;75.20;;;;;;4990755;28;20031;-78
2021/05/06 05:27:11;;;;;;;2.53;1.60;;;7.00;76.10;;;;;;4994140;28;20034;-77
2021/05/06 05:29:36;;;;;;;3.25;1.50;;;7.10;76.00;;;;;;4985349;28;20045;-77
2021/05/06 05:32:02;;;;;;;3.97;1.92;;;7.10;76.10;;;;;;4991992;28;20521;-77
2021/05/06 05:34:34;;;;;;;2.03;1.42;;;7.10;75.30;;;;;;4984678;28;20038;-78
2021/05/06 05:37:00;;;;;;;2.35;1.67;;;7.20;75.10;;;;;;4995344;28;20025;-77
2021/05/06 05:55:34;;;;;;;1.80;1.55;;;7.40;71.40;;;;;;4993020;28;20088;-77
2021/05/06 05:58:00;;;;;;;1.88;1.70;;;7.40;72.00;;;;;;4987314;28;20042;-78
2021/05/06 06:00:25;;;;;;;2.75;1.50;;;7.40;72.80;;;;;;4992560;28;20037;-77
2021/05/06 06:02:51;;;;;;;2.15;1.38;;;7.40;70.70;;;;;;4994044;28;20089;-77
2021/05/06 06:05:17;;;;;;;1.30;1.20;;;7.40;71.10;;;;;;4986837;28;20671;-77
2021/05/06 06:07:42;;;;;;;1.63;1.50;;;7.50;70.30;;;;;;4988383;28;20033;-78
2021/05/06 06:10:08;;;;;;;2.13;1.30;;;7.60;70.90;;;;;;4982337;28;20026;-77
2021/05/06 06:12:34;;;;;;;2.42;1.23;;;7.70;71.10;;;;;;4985470;28;20497;-79
2021/05/06 06:15:05;;;;;;;1.65;1.23;;;7.80;70.30;;;;;;4986980;28;20536;-77
2021/05/06 06:17:38;;;;;;;4.13;1.77;;;7.80;70.70;;;;;;4987186;28;20504;-77
2021/05/06 06:20:04;;;;;;;1.92;1.23;;;8.00;70.70;;;;;;4988468;28;20097;-77
2021/05/06 06:22:31;;;;;;;3.17;1.23;;;8.00;70.60;;;;;;4989441;28;20982;-78
2021/05/06 06:24:58;;;;;;;4.57;1.40;;;8.10;69.70;;;;;;4985226;28;20501;-77
2021/05/06 06:27:24;;;;;;;3.97;1.40;;;8.10;70.40;;;;;;4988275;28;20105;-78
2021/05/06 06:29:49;;;;;;;2.95;1.23;;;8.20;70.80;;;;;;4989113;28;20106;-77
2021/05/06 06:32:17;;;;;;;1.85;1.27;;;8.20;70.00;;;;;;4989395;28;20042;-76
2021/05/06 06:34:43;;;;;;;1.35;1.15;;;8.30;70.70;;;;;;4988285;28;20109;-78
2021/05/06 06:37:08;;;;;;;2.50;1.75;;;8.40;70.40;;;;;;4987234;28;20118;-77
2021/05/06 06:39:39;;;;;;;1.90;1.20;;;8.40;69.80;;;;;;4993830;28;20034;-77
2021/05/06 06:42:09;;;;;;;1.67;1.23;;;8.50;69.60;;;;;;4992886;28;20037;-77
2021/05/06 06:44:35;;;;;;;2.55;1.50;;;8.50;69.20;;;;;;4994809;28;20408;-77
2021/05/06 06:47:02;;;;;;;2.25;1.30;;;8.60;69.00;;;;;;4988455;28;20083;-77
2021/05/06 06:49:37;;;;;;;2.78;1.38;;;8.60;68.70;;;;;;4987277;28;20568;-77
2021/05/06 06:52:04;;;;;;;2.95;1.70;;;8.80;68.90;;;;;;4991609;28;20661;-77
2021/05/06 06:54:30;;;;;;;2.50;1.38;;;8.90;69.00;;;;;;4992672;28;20026;-77
2021/05/06 06:56:56;;;;;;;4.03;1.35;;;9.00;69.10;;;;;;4989080;28;20029;-78
2021/05/06 06:59:22;;;;;;;4.72;1.42;;;9.10;68.60;;;;;;4985181;28;20061;-77
2021/05/06 07:01:48;;;;;;;1.52;1.35;;;9.10;68.10;;;;;;4988202;28;20062;-77
2021/05/06 07:04:14;;;;;;;5.90;1.63;;;9.10;67.50;;;;;;4987527;28;20448;-77
2021/05/06 07:06:39;;;;;;;9.50;1.98;;;9.20;67.10;;;;;;4985428;28;20031;-77
2021/05/06 07:09:08;;;;;;;2.10;1.35;;;9.20;66.30;;;;;;4988785;28;20030;-78
2021/05/06 07:11:34;;;;;;;4.32;1.52;;;9.20;66.10;;;;;;4983503;28;20026;-77
2021/05/06 07:14:00;;;;;;;2.22;1.40;;;9.30;64.90;;;;;;4991317;28;20105;-78
2021/05/06 07:16:25;;;;;;;3.08;1.50;;;9.30;65.00;;;;;;4983477;28;20164;-78
2021/05/06 07:18:51;;;;;;;4.05;1.50;;;9.30;64.50;;;;;;4993167;28;20026;-76
2021/05/06 07:21:17;;;;;;;4.78;1.58;;;9.30;65.10;;;;;;4987584;28;20054;-77
2021/05/06 07:23:42;;;;;;;4.30;1.42;;;9.30;65.40;;;;;;4990281;28;20034;-77
2021/05/06 07:26:08;;;;;;;2.42;1.80;;;9.30;65.00;;;;;;4985604;28;20037;-77
2021/05/06 07:28:37;;;;;;;2.97;1.50;;;9.30;63.50;;;;;;4994044;28;20430;-77
2021/05/06 07:31:04;;;;;;;3.38;1.70;;;9.30;64.00;;;;;;4983877;28;20038;-77
2021/05/06 07:33:31;;;;;;;3.78;1.52;;;9.30;64.80;;;;;;4981083;28;20188;-77
2021/05/06 07:35:58;;;;;;;4.50;1.20;;;9.30;63.60;;;;;;4978258;28;20023;-76
2021/05/06 07:38:25;;;;;;;3.60;1.77;;;9.30;64.30;;;;;;4994821;28;20084;-76
2021/05/06 07:40:51;;;;;;;2.83;1.30;;;9.30;62.20;;;;;;4987565;28;20023;-77
2021/05/06 07:43:17;;;;;;;2.33;1.48;;;9.30;62.90;;;;;;4987580;28;20034;-77
2021/05/06 07:45:43;;;;;;;7.95;1.67;;;9.30;62.90;;;;;;4995527;28;20201;-78
2021/05/06 07:48:09;;;;;;;2.38;1.50;;;9.30;63.00;;;;;;4982065;28;20581;-77
2021/05/06 07:50:35;;;;;;;2.40;1.50;;;9.40;63.70;;;;;;4994633;28;20061;-76
2021/05/06 07:53:06;;;;;;;3.88;1.40;;;9.40;62.10;;;;;;4983965;28;20027;-76
2021/05/06 07:55:32;;;;;;;0.93;0.93;;;9.40;63.10;;;;;;4983701;28;20027;-77
2021/05/06 07:58:00;;;;;;;2.85;1.33;;;9.40;63.10;;;;;;4989934;28;20489;-77
2021/05/06 08:00:26;;;;;;;3.50;1.52;;;9.40;61.30;;;;;;4990690;28;20026;-77
2021/05/06 08:02:54;;;;;;;3.92;1.30;;;9.40;60.70;;;;;;4986617;28;20030;-76
2021/05/06 08:05:20;;;;;;;2.10;1.30;;;9.40;62.60;;;;;;4992963;28;20049;-77
2021/05/06 08:07:45;;;;;;;2.35;1.40;;;9.50;60.40;;;;;;4990060;28;20026;-76
2021/05/06 08:10:12;;;;;;;5.78;1.50;;;9.50;61.00;;;;;;4991783;28;20066;-76
2021/05/06 08:12:38;;;;;;;4.50;1.58;;;9.60;63.00;;;;;;4989711;28;20034;-76
2021/05/06 08:15:07;;;;;;;6.47;1.80;;;9.70;63.50;;;;;;4993106;28;20525;-77
2021/05/06 08:17:38;;;;;;;3.08;1.55;;;9.70;60.30;;;;;;4987059;28;20029;-76
2021/05/06 08:20:10;;;;;;;2.28;1.25;;;9.80;62.20;;;;;;4994843;28;20050;-77
2021/05/06 08:22:37;;;;;;;1.55;1.45;;;9.90;61.90;;;;;;4988361;28;20026;-76
2021/05/06 08:25:03;;;;;;;1.33;1.10;;;10.00;58.40;;;;;;4990145;28;20070;-76
2021/05/06 08:27:31;;;;;;;4.07;1.38;;;10.10;61.50;;;;;;4989244;28;20513;-76
2021/05/06 08:29:57;;;;;;;3.20;1.30;;;10.20;62.10;;;;;;4991942;28;20312;-77
2021/05/06 08:32:22;;;;;;;1.75;1.17;;;10.30;60.00;;;;;;4986169;28;20181;-76
2021/05/06 08:34:49;;;;;;;3.13;1.10;;;10.40;58.70;;;;;;4986129;28;20156;-77
2021/05/06 08:37:15;;;;;;;4.88;1.90;;;10.40;59.10;;;;;;4997078;28;20109;-76
2021/05/06 08:39:41;;;;;;;2.10;1.45;;;10.40;59.40;;;;;;4987303;28;20709;-77
2021/05/06 08:42:07;;;;;;;1.77;1.17;;;10.50;58.80;;;;;;4988706;28;20122;-77
2021/05/06 08:44:36;;;;;;;2.50;1.52;;;10.50;59.60;;;;;;4989812;28;20030;-77
2021/05/06 08:47:06;;;;;;;2.83;1.15;;;10.50;58.50;;;;;;4984166;28;20113;-77
2021/05/06 08:49:36;;;;;;;5.07;1.63;;;10.50;55.80;;;;;;4996527;28;20108;-77
2021/05/06 08:52:06;;;;;;;5.25;1.25;;;10.50;58.50;;;;;;4994049;28;20025;-77
2021/05/06 08:54:32;;;;;;;1.25;1.20;;;10.50;58.70;;;;;;4984144;28;20392;-78
2021/05/06 08:56:58;;;;;;;1.95;1.42;;;10.50;59.30;;;;;;4987164;28;20113;-77
2021/05/06 08:59:25;;;;;;;2.30;1.10;;;10.60;57.10;;;;;;4993686;28;20053;-76
2021/05/06 09:01:52;;;;;;;2.50;1.80;;;10.60;58.80;;;;;;4996303;28;20659;-76
2021/05/06 09:04:18;;;;;;;5.18;1.40;;;10.60;60.80;;;;;;4983487;28;20141;-76
2021/05/06 09:06:56;;;;;;;5.40;1.52;;;10.70;59.30;;;;;;4990565;28;20496;-77
2021/05/06 09:09:23;;;;;;;4.07;1.60;;;10.70;58.90;;;;;;4988993;28;20045;-76
2021/05/06 09:11:57;;;;;;;1.45;1.35;;;10.80;59.10;;;;;;4977193;28;20436;-75
2021/05/06 09:14:44;;;;;;;2.30;1.40;;;10.70;56.70;;;;;;4990202;28;20030;-76
2021/05/06 09:17:33;;;;;;;2.97;1.30;;;10.80;59.30;;;;;;4987291;28;20022;-76
2021/05/06 09:20:14;;;;;;;3.90;1.63;;;10.90;60.20;;;;;;4983811;28;20034;-76
2021/05/06 09:22:44;;;;;;;2.10;1.20;;;10.90;58.70;;;;;;4987598;28;20037;-76
2021/05/06 09:25:35;;;;;;;4.47;1.60;;;10.90;57.60;;;;;;4983653;28;20030;-76
2021/05/06 09:28:19;;;;;;;1.38;1.27;;;11.00;58.60;;;;;;4984618;28;20118;-75
2021/05/06 09:30:54;;;;;;;3.05;1.50;;;11.00;57.40;;;;;;4982547;28;20054;-76
2021/05/06 09:33:36;;;;;;;5.13;1.55;;;11.00;55.40;;;;;;4980702;28;20401;-76
2021/05/06 09:36:08;;;;;;;4.32;1.55;;;11.00;56.30;;;;;;4981399;28;20362;-76
2021/05/06 09:38:54;;;;;;;2.47;1.20;;;11.00;56.70;;;;;;4996384;28;20026;-76
2021/05/06 09:41:24;;;;;;;4.13;1.48;;;11.00;58.20;;;;;;4981368;28;20033;-76
2021/05/06 09:43:50;;;;;;;2.30;1.58;;;11.00;60.10;;;;;;4988144;28;20129;-76
2021/05/06 09:46:24;;;;;;;2.97;1.10;;;11.00;55.20;;;;;;4987896;28;20022;-76
2021/05/06 09:49:09;;;;;;;1.10;1.10;;;11.00;56.80;;;;;;4988409;28;20110;-77
2021/05/06 09:51:45;;;;;;;2.85;1.35;;;10.90;54.70;;;;;;4986072;28;20048;-77
2021/05/06 09:54:18;;;;;;;4.95;1.70;;;10.90;58.00;;;;;;4996374;28;20128;-76
2021/05/06 09:56:45;;;;;;;2.28;1.52;;;10.90;58.10;;;;;;4980082;28;20181;-77
2021/05/06 09:59:20;;;;;;;5.15;1.70;;;10.80;57.30;;;;;;4980497;28;20027;-77
2021/05/06 10:01:46;;;;;;;3.30;1.20;;;10.80;58.70;;;;;;4981003;28;20034;-77
2021/05/06 10:04:20;;;;;;;1.73;1.58;;;10.90;58.70;;;;;;4988853;28;20035;-77
2021/05/06 10:07:04;;;;;;;1.75;1.33;;;10.80;57.40;;;;;;4989096;28;20022;-76
2021/05/06 10:09:31;;;;;;;2.72;1.75;;;10.80;57.80;;;;;;4990658;28;20067;-77
2021/05/06 10:11:58;;;;;;;1.20;1.10;;;10.80;57.70;;;;;;4990346;28;20037;-76
2021/05/06 10:14:23;;;;;;;3.30;1.30;;;10.80;57.50;;;;;;4988722;28;20041;-77
2021/05/06 10:16:50;;;;;;;2.92;1.45;;;10.80;56.90;;;;;;4990976;28;20093;-77
2021/05/06 10:19:17;;;;;;;2.40;1.27;;;10.80;57.30;;;;;;4992503;28;20058;-76
2021/05/06 10:21:46;;;;;;;2.13;1.40;;;10.70;56.50;;;;;;4988462;28;20465;-77
2021/05/06 10:24:16;;;;;;;1.45;1.17;;;10.80;58.30;;;;;;4989984;28;20034;-77
2021/05/06 10:26:45;;;;;;;2.97;1.33;;;10.70;57.50;;;;;;4992468;28;20522;-76
2021/05/06 10:29:13;;;;;;;1.23;1.10;;;10.70;58.30;;;;;;4996818;28;20030;-77
2021/05/06 10:31:40;;;;;;;3.75;1.17;;;10.70;57.30;;;;;;4986293;28;20045;-77
2021/05/06 10:34:07;;;;;;;3.05;1.08;;;10.70;58.60;;;;;;4984197;28;20508;-77
2021/05/06 10:36:34;;;;;;;3.30;1.27;;;10.60;57.20;;;;;;4991926;28;20030;-76
2021/05/06 10:39:01;;;;;;;3.58;1.15;;;10.50;57.50;;;;;;4985936;28;20026;-77
2021/05/06 10:41:34;;;;;;;2.85;1.40;;;10.50;59.30;;;;;;4993271;28;20613;-77
2021/05/06 10:44:02;;;;;;;7.18;1.35;;;10.50;59.90;;;;;;4988116;28;20026;-77
2021/05/06 10:46:55;;;;;;;1.83;1.23;;;10.50;58.70;;;;;;4990566;28;20064;-77
2021/05/06 10:49:22;;;;;;;2.97;1.10;;;10.60;58.90;;;;;;4990360;28;20088;-77
2021/05/06 10:52:00;;;;;;;2.17;0.98;;;10.60;60.80;;;;;;4994360;28;20503;-77
2021/05/06 10:54:28;;;;;;;2.40;1.30;;;10.70;60.30;;;;;;4989885;28;20029;-77
2021/05/06 10:56:59;;;;;;;1.25;1.13;;;10.70;60.80;;;;;;4993005;28;20029;-77
2021/05/06 10:59:31;;;;;;;3.90;1.20;;;10.70;60.80;;;;;;4986182;28;20042;-76
2021/05/06 11:01:58;;;;;;;4.32;1.45;;;10.70;60.90;;;;;;4992091;28;20232;-76
2021/05/06 11:04:40;;;;;;;2.78;1.38;;;10.60;61.70;;;;;;4988219;28;20023;-77
2021/05/06 11:07:15;;;;;;;6.18;1.60;;;10.60;61.00;;;;;;4989122;28;20041;-76
2021/05/06 11:09:44;;;;;;;2.42;1.17;;;10.50;62.80;;;;;;4985979;28;20022;-77
2021/05/06 11:12:16;;;;;;;3.30;1.17;;;10.60;63.80;;;;;;4984645;28;20493;-76
2021/05/06 11:15:00;;;;;;;1.70;1.60;;;10.60;64.00;;;;;;4991556;28;20397;-77
2021/05/06 11:17:37;;;;;;;3.08;1.23;;;10.50;62.70;;;;;;4984354;28;20366;-77
2021/05/06 11:20:29;;;;;;;2.53;1.55;;;10.50;64.00;;;;;;4992414;28;20101;-77
2021/05/06 11:23:00;;;;;;;4.00;1.20;;;10.40;65.60;;;;;;4983765;28;20042;-77
2021/05/06 11:25:38;;;;;;;1.60;1.20;;;10.40;66.40;;;;;;4992054;28;20025;-76
2021/05/06 11:28:10;;;;;;;2.28;1.40;;;10.20;64.20;;;;;;4981320;28;20026;-76
2021/05/06 11:30:37;;;;;;;2.00;1.27;;;10.20;67.40;;;;;;4988086;28;20105;-76
2021/05/06 11:33:27;;;;;;;1.10;1.00;;;10.10;66.90;;;;;;4986471;28;20577;-76
2021/05/06 11:36:19;;;;;;;3.65;1.55;;;10.00;67.90;;;;;;4990354;28;20019;-76
2021/05/06 11:38:48;;;;;;;2.45;1.50;;;10.00;68.20;;;;;;4979463;28;20058;-75
2021/05/06 11:41:17;;;;;;;2.28;1.20;;;9.90;67.80;;;;;;4985845;28;20042;-75
2021/05/06 11:43:50;;;;;;;1.63;1.25;;;9.90;69.00;;;;;;4988247;28;20087;-76
2021/05/06 11:46:17;;;;;;;8.35;1.95;;;9.90;69.80;;;;;;4988185;28;20504;-76
2021/05/06 11:48:48;;;;;;;1.88;1.38;;;9.90;70.80;;;;;;4986925;28;20026;-76
2021/05/06 11:51:32;;;;;;;2.30;1.50;;;9.80;70.50;;;;;;4993993;28;20740;-75
2021/05/06 11:54:05;;;;;;;3.08;1.67;;;9.80;71.70;;;;;;4985907;28;20033;-75
2021/05/06 11:56:32;;;;;;;3.08;1.40;;;9.70;71.90;;;;;;4992832;28;20441;-76
2021/05/06 11:58:59;;;;;;;3.75;1.77;;;9.80;71.50;;;;;;4987635;28;20437;-75
2021/05/06 12:01:26;;;;;;;1.52;1.40;;;9.70;70.70;;;;;;4993912;28;20037;-75
2021/05/06 12:03:53;;;;;;;1.40;1.30;;;9.60;73.00;;;;;;4988351;28;20049;-74
2021/05/06 12:06:30;;;;;;;6.32;1.60;;;9.60;73.30;;;;;;4993393;28;20026;-74
2021/05/06 12:08:57;;;;;;;1.52;1.42;;;9.60;73.50;;;;;;4988959;28;20029;-76
2021/05/06 12:11:37;;;;;;;1.75;1.50;;;9.60;72.60;;;;;;4990977;28;20030;-76
2021/05/06 12:14:03;;;;;;;2.65;1.50;;;9.60;74.30;;;;;;4986568;28;20117;-75
2021/05/06 12:16:29;;;;;;;2.88;1.50;;;9.50;73.90;;;;;;4985106;28;20404;-76
2021/05/06 12:19:08;;;;;;;3.92;1.58;;;9.50;73.40;;;;;;4987798;28;20018;-76
2021/05/06 12:21:43;;;;;;;2.00;1.80;;;9.60;74.70;;;;;;4985650;28;20034;-76
2021/05/06 12:24:12;;;;;;;2.65;1.80;;;9.60;73.90;;;;;;4995428;28;20026;-76
2021/05/06 12:26:40;;;;;;;1.63;1.52;;;9.60;72.60;;;;;;5003969;28;20033;-77
2021/05/06 12:29:06;;;;;;;3.25;1.63;;;9.60;73.30;;;;;;4995308;28;20030;-77
2021/05/06 12:31:45;;;;;;;5.53;1.70;;;9.60;72.80;;;;;;4996501;28;20572;-75
2021/05/06 12:34:22;;;;;;;3.50;1.52;;;9.60;73.40;;;;;;4994707;28;20037;-76
2021/05/06 12:36:57;;;;;;;3.20;2.45;;;9.70;75.30;;;;;;4995013;28;20089;-77
2021/05/06 12:39:23;;;;;;;5.75;2.00;;;9.70;75.40;;;;;;4995211;28;20065;-76
2021/05/06 12:42:01;;;;;;;1.83;1.70;;;9.60;74.20;;;;;;4995943;28;20037;-76
2021/05/06 12:44:37;;;;;;;2.45;1.80;;;9.60;74.70;;;;;;4995312;28;20022;-76
2021/05/06 12:47:27;;;;;;;3.85;2.40;;;9.60;75.00;;;;;;4992381;28;20027;-76
2021/05/06 12:50:09;;;;;;;2.00;1.90;;;9.60;75.50;;;;;;4996024;28;20037;-76
2021/05/06 12:52:42;;;;;;;2.80;1.90;;;9.50;75.20;;;;;;4991716;28;20408;-76
2021/05/06 12:55:27;;;;;;;5.70;2.17;;;9.60;76.70;;;;;;4999104;28;20070;-76
2021/05/06 12:58:06;;;;;;;6.32;1.88;;;9.60;77.40;;;;;;4989547;28;20036;-77
2021/05/06 13:00:33;;;;;;;4.60;1.80;;;9.60;78.50;;;;;;4996163;28;20018;-75
2021/05/06 13:03:04;;;;;;;5.63;2.17;;;9.60;76.30;;;;;;4984455;28;21023;-76
2021/05/06 13:05:32;;;;;;;3.40;1.90;;;9.60;77.80;;;;;;4997285;28;20045;-76
2021/05/06 13:07:59;;;;;;;5.20;2.00;;;9.50;76.70;;;;;;4986056;28;21977;-76
2021/05/06 13:10:42;;;;;;;3.20;1.83;;;9.50;79.10;;;;;;4998871;28;20113;-75
2021/05/06 13:13:11;;;;;;;2.00;1.80;;;9.40;77.60;;;;;;4985057;28;20028;-76
2021/05/06 13:15:46;;;;;;;;;;;9.50;78.70;;;;;;4994580;28;20030;-77
2021/05/06 13:18:13;;;;;;;2.45;1.95;;;9.40;78.00;;;;;;4987788;28;19951;-75
2021/05/06 13:20:39;;;;;;;4.78;2.25;;;9.40;78.00;;;;;;4995146;28;20014;-75
2021/05/06 13:23:09;;;;;;;4.28;2.05;;;9.40;78.70;;;;;;4988434;28;20113;-76
2021/05/06 13:25:43;;;;;;;2.15;1.67;;;9.40;77.70;;;;;;4989738;28;20045;-76
2021/05/06 13:28:11;;;;;;;3.80;1.92;;;9.30;77.40;;;;;;4987323;28;20069;-76
2021/05/06 13:30:37;;;;;;;6.03;2.20;;;9.30;77.90;;;;;;4992717;28;20081;-75
2021/05/06 13:33:20;;;;;;;2.53;2.10;;;9.30;78.80;;;;;;4990708;28;20023;-74
2021/05/06 13:36:08;;;;;;;4.03;2.22;;;9.40;79.40;;;;;;4994354;28;20056;-76
2021/05/06 13:39:00;;;;;;;3.33;2.10;;;9.40;79.30;;;;;;4983384;28;20388;-76
2021/05/06 13:41:28;;;;;;;6.72;2.10;;;9.40;79.20;;;;;;4995306;28;20026;-76
2021/05/06 13:43:56;;;;;;;3.70;2.05;;;9.40;79.50;;;;;;4987415;28;20030;-75
2021/05/06 13:46:23;;;;;;;2.72;1.95;;;9.40;78.30;;;;;;4998128;28;20041;-76
2021/05/06 13:48:50;;;;;;;4.05;1.90;;;9.40;79.20;;;;;;4987568;28;20467;-76
2021/05/06 13:51:18;;;;;;;3.53;1.88;;;9.40;79.00;;;;;;4999347;28;20051;-76
2021/05/06 13:53:45;;;;;;;3.95;1.92;;;9.50;79.70;;;;;;4985263;28;20023;-75
2021/05/06 13:56:11;;;;;;;3.05;1.73;;;9.40;78.50;;;;;;4998573;28;20030;-76
2021/05/06 13:58:38;;;;;;;5.45;2.10;;;9.50;78.90;;;;;;4988246;28;20497;-77
2021/05/06 14:01:06;;;;;;;4.45;2.10;;;9.50;78.70;;;;;;4993777;28;20559;-76
2021/05/06 14:03:32;;;;;;;3.90;1.85;;;9.50;79.70;;;;;;4985759;28;20022;-76
2021/05/06 14:05:59;;;;;;;3.90;1.92;;;9.60;80.10;;;;;;4997489;28;20489;-75
2021/05/06 14:08:26;;;;;;;3.15;2.28;;;9.50;79.00;;;;;;4991211;28;20026;-76
2021/05/06 14:10:52;;;;;;;6.00;2.60;;;9.60;79.10;;;;;;4995866;28;20775;-75
2021/05/06 14:13:18;;;;;;;6.07;2.10;;;9.50;79.40;;;;;;4988246;28;20033;-75
2021/05/06 14:15:47;;;;;;;2.75;2.33;;;9.50;79.50;;;;;;4989379;28;20476;-76
2021/05/06 14:18:13;;;;;;;3.72;2.22;;;9.50;79.40;;;;;;4990801;28;20023;-75
2021/05/06 14:20:40;;;;;;;4.28;2.42;;;9.50;79.80;;;;;;4994231;28;20022;-74
2021/05/06 14:23:07;;;;;;;3.72;2.47;;;9.40;80.20;;;;;;4992206;28;20496;-75
2021/05/06 14:25:33;;;;;;;6.07;2.30;;;9.30;81.70;;;;;;4993642;28;20048;-75
2021/05/06 14:27:59;;;;;;;4.60;2.63;;;9.30;82.40;;;;;;4988887;28;20105;-74
2021/05/06 14:30:25;;;;;;;4.45;2.67;;;9.20;82.30;;;;;;4991636;28;20037;-76
2021/05/06 14:32:51;;;;;;;6.13;2.15;;;9.30;82.60;;;;;;4990274;28;20030;-77
2021/05/06 14:35:17;;;;;;;6.88;2.65;;;9.30;82.10;;;;;;4990153;28;20096;-77
2021/05/06 14:37:42;;;;;;;3.65;2.20;;;9.30;82.80;;;;;;4988926;28;20034;-74
2021/05/06 14:40:09;;;;;;;5.18;2.60;;;9.30;82.80;;;;;;4993584;28;20022;-75
2021/05/06 14:42:34;;;;;;;4.60;2.20;;;9.30;82.80;;;;;;4987990;28;20030;-74
2021/05/06 14:45:01;;;;;;;3.58;2.50;;;9.20;83.10;;;;;;4992392;28;20045;-76
2021/05/06 14:47:27;;;;;;;3.08;2.00;;;9.20;83.70;;;;;;4990210;28;20029;-76
2021/05/06 14:49:52;;;;;;;4.25;1.83;;;9.20;83.40;;;;;;4995683;28;20018;-76
2021/05/06 14:52:18;;;;;;;2.90;2.42;;;9.20;83.00;;;;;;4991203;28;20569;-74
2021/05/06 14:54:46;;;;;;;3.67;2.10;;;9.20;83.00;;;;;;4992482;28;20034;-77
2021/05/06 14:57:11;;;;;;;3.17;1.80;;;9.10;82.40;;;;;;4992732;28;20026;-75
2021/05/06 14:59:37;;;;;;;3.45;1.77;;;9.10;83.10;;;;;;4990399;28;20033;-74
2021/05/06 15:02:03;;;;;;;2.33;2.15;;;9.10;83.80;;;;;;4990763;28;20026;-76
2021/05/06 15:04:29;;;;;;;4.00;2.15;;;9.00;84.00;;;;;;4990297;28;20030;-75
2021/05/06 15:06:55;;;;;;;2.10;1.90;;;9.00;84.20;;;;;;4989121;28;20026;-74
2021/05/06 15:09:22;;;;;;;2.88;1.70;;;9.10;84.30;;;;;;4990343;28;20084;-75
2021/05/06 15:11:48;;;;;;;2.17;1.95;;;9.10;84.20;;;;;;4993608;28;20032;-75
2021/05/06 15:14:13;;;;;;;3.60;2.03;;;9.10;84.50;;;;;;4990826;28;20456;-74
2021/05/06 15:16:39;;;;;;;1.83;1.60;;;9.10;84.10;;;;;;4990992;28;20094;-75
2021/05/06 15:19:04;;;;;;;5.03;2.28;;;9.10;84.30;;;;;;4991623;28;20556;-75
2021/05/06 15:21:30;;;;;;;2.22;1.92;;;9.10;84.20;;;;;;4995679;28;20076;-76
2021/05/06 15:23:56;;;;;;;2.40;2.20;;;9.00;84.00;;;;;;4988537;28;20026;-74
2021/05/06 15:26:21;;;;;;;2.10;1.90;;;9.00;84.00;;;;;;4992112;28;20030;-76
2021/05/06 15:28:47;;;;;;;3.15;2.35;;;9.00;84.20;;;;;;4987307;28;20034;-76
2021/05/06 15:31:13;;;;;;;2.00;1.90;;;9.00;84.00;;;;;;4987170;28;20041;-75
2021/05/06 15:33:38;;;;;;;3.58;1.95;;;8.90;84.60;;;;;;4990277;28;20062;-75
2021/05/06 15:36:04;;;;;;;3.13;2.22;;;8.90;84.90;;;;;;4986312;28;20026;-74
2021/05/06 15:38:30;;;;;;;3.20;1.98;;;9.00;85.10;;;;;;4988373;28;20033;-74
2021/05/06 15:40:56;;;;;;;2.63;1.80;;;9.00;84.80;;;;;;5000456;28;20041;-75
2021/05/06 15:43:22;;;;;;;4.65;1.80;;;8.90;84.40;;;;;;4988290;28;20031;-76
2021/05/06 15:45:48;;;;;;;2.95;1.88;;;8.90;85.40;;;;;;4992429;28;20472;-77
2021/05/06 15:48:15;;;;;;;1.73;1.63;;;8.90;84.80;;;;;;4986992;28;20041;-76
2021/05/06 15:50:42;;;;;;;5.00;1.80;;;8.80;84.50;;;;;;4992977;28;20458;-75
2021/05/06 15:53:09;;;;;;;2.80;1.80;;;8.80;84.70;;;;;;4991694;28;20121;-77
2021/05/06 15:55:35;;;;;;;3.70;2.13;;;8.80;84.60;;;;;;4990651;28;20109;-75
2021/05/06 15:58:03;;;;;;;8.20;2.10;;;8.80;85.10;;;;;;4987613;28;20489;-76
2021/05/06 16:00:30;;;;;;;2.72;1.92;;;8.80;85.10;;;;;;4990382;28;20026;-75
2021/05/06 16:03:05;;;;;;;2.35;2.13;;;8.80;84.60;;;;;;4986479;28;20052;-75
2021/05/06 16:05:31;;;;;;;3.20;2.50;;;8.80;84.60;;;;;;4990405;28;20520;-76
2021/05/06 16:07:58;;;;;;;3.50;2.03;;;8.70;85.70;;;;;;4985186;28;20045;-75
2021/05/06 16:10:25;;;;;;;2.40;2.20;;;8.70;85.20;;;;;;4991444;28;20027;-76
2021/05/06 16:12:51;;;;;;;3.90;2.40;;;8.80;84.70;;;;;;4991712;28;20022;-75
2021/05/06 16:15:17;;;;;;;3.45;2.65;;;8.80;84.80;;;;;;4990836;28;20113;-75
2021/05/06 16:17:43;;;;;;;4.15;2.40;;;8.70;84.60;;;;;;4987195;28;20029;-75
2021/05/06 16:20:22;;;;;;;3.35;1.98;;;8.70;85.10;;;;;;4994886;28;20027;-76
2021/05/06 16:22:48;;;;;;;2.35;1.80;;;8.70;84.70;;;;;;4984961;28;20619;-76
2021/05/06 16:25:16;;;;;;;1.83;1.73;;;8.70;85.20;;;;;;4992854;28;20065;-75
2021/05/06 16:27:44;;;;;;;2.97;2.10;;;8.70;85.50;;;;;;4988526;28;20517;-76